Isla de Contadora, Panama
Current Conditions -  °F | °C
As of 8:00 PM on Thursday 27 Nov 2014 (Local Time) from MPTO Reporting Station
Few Clouds Few Clouds  
Wind Chill: 82°   Ceiling: Unl
Heat Index: 91°   Visibility: 6mi
Dew Point: 77°   Wind: 0mph
Humidity: 84%   Direction: NA
Pressure: 29.77"   Gusts: NA
Location:  8.63°N, 79.03°W
Report Text: MPTO 280100Z 00000KT 9999 FEW018 28/25 Q1008 NOSIG
Loading
Personal Weather Stations






























Interactive Weather Map New forecast layout! Learn more

10-Day Weather Forecast

Advertisements
Track Severe Weather on mobile